sensor_id;sensor_type;location;lat;lon;timestamp;pressure;altitude;pressure_sealevel;temperature;humidity
73151;BME280;61354;50.758;6.106;2023-07-13T00:01:29;99115.38;;;15.29;70.68
73151;BME280;61354;50.758;6.106;2023-07-13T00:03:56;99122.19;;;15.28;70.50
73151;BME280;61354;50.758;6.106;2023-07-13T00:06:22;99126.97;;;15.24;70.60
73151;BME280;61354;50.758;6.106;2023-07-13T00:08:47;99129.31;;;15.18;70.90
73151;BME280;61354;50.758;6.106;2023-07-13T00:11:15;99130.91;;;15.15;71.06
73151;BME280;61354;50.758;6.106;2023-07-13T00:13:41;99126.84;;;15.09;71.36
73151;BME280;61354;50.758;6.106;2023-07-13T00:16:08;99127.66;;;15.13;70.80
73151;BME280;61354;50.758;6.106;2023-07-13T00:18:34;99133.63;;;15.08;71.35
73151;BME280;61354;50.758;6.106;2023-07-13T00:20:59;99133.25;;;15.10;71.16
73151;BME280;61354;50.758;6.106;2023-07-13T00:23:36;99129.56;;;14.99;71.41
73151;BME280;61354;50.758;6.106;2023-07-13T00:26:03;99132.34;;;14.95;72.41
73151;BME280;61354;50.758;6.106;2023-07-13T00:28:29;99133.91;;;14.89;72.39
73151;BME280;61354;50.758;6.106;2023-07-13T00:30:54;99142.66;;;14.87;72.56
73151;BME280;61354;50.758;6.106;2023-07-13T00:33:21;99134.31;;;14.91;72.00
73151;BME280;61354;50.758;6.106;2023-07-13T00:35:48;99126.81;;;15.02;71.47
73151;BME280;61354;50.758;6.106;2023-07-13T00:38:14;99129.16;;;15.00;72.23
73151;BME280;61354;50.758;6.106;2023-07-13T00:40:40;99130.38;;;14.99;71.89
73151;BME280;61354;50.758;6.106;2023-07-13T00:43:13;99132.69;;;14.90;72.39
73151;BME280;61354;50.758;6.106;2023-07-13T00:48:13;99141.81;;;14.83;72.74
73151;BME280;61354;50.758;6.106;2023-07-13T00:50:40;99138.94;;;14.73;73.35
73151;BME280;61354;50.758;6.106;2023-07-13T00:53:07;99132.09;;;14.66;73.28
73151;BME280;61354;50.758;6.106;2023-07-13T00:55:34;99140.13;;;14.72;73.43
73151;BME280;61354;50.758;6.106;2023-07-13T00:58:01;99126.50;;;14.66;74.02
73151;BME280;61354;50.758;6.106;2023-07-13T01:00:29;99138.47;;;14.67;74.04
73151;BME280;61354;50.758;6.106;2023-07-13T01:02:55;99133.69;;;14.67;73.55
73151;BME280;61354;50.758;6.106;2023-07-13T01:05:21;99134.53;;;14.72;73.58
73151;BME280;61354;50.758;6.106;2023-07-13T01:07:49;99139.28;;;14.64;73.79
73151;BME280;61354;50.758;6.106;2023-07-13T01:10:18;99137.69;;;14.66;74.12
73151;BME280;61354;50.758;6.106;2023-07-13T01:12:46;99130.06;;;14.60;73.99
73151;BME280;61354;50.758;6.106;2023-07-13T01:15:34;99133.69;;;14.64;73.98
73151;BME280;61354;50.758;6.106;2023-07-13T01:18:00;99123.38;;;14.75;73.24
73151;BME280;61354;50.758;6.106;2023-07-13T01:20:27;99121.34;;;14.69;73.23
73151;BME280;61354;50.758;6.106;2023-07-13T01:22:52;99115.41;;;14.74;73.43
73151;BME280;61354;50.758;6.106;2023-07-13T01:25:19;99127.25;;;14.63;73.39
73151;BME280;61354;50.758;6.106;2023-07-13T01:27:45;99118.41;;;14.54;73.33
73151;BME280;61354;50.758;6.106;2023-07-13T01:30:11;99122.44;;;14.57;73.10
73151;BME280;61354;50.758;6.106;2023-07-13T01:32:36;99121.66;;;14.60;73.28
73151;BME280;61354;50.758;6.106;2023-07-13T01:35:02;99125.19;;;14.53;73.36
73151;BME280;61354;50.758;6.106;2023-07-13T01:37:28;99124.69;;;14.44;73.87
73151;BME280;61354;50.758;6.106;2023-07-13T01:39:59;99120.81;;;14.52;73.54
73151;BME280;61354;50.758;6.106;2023-07-13T01:42:25;99116.81;;;14.53;73.47
73151;BME280;61354;50.758;6.106;2023-07-13T01:44:50;99115.16;;;14.49;73.81
73151;BME280;61354;50.758;6.106;2023-07-13T01:47:16;99116.78;;;14.50;73.70
73151;BME280;61354;50.758;6.106;2023-07-13T01:49:41;99114.31;;;14.45;74.17
73151;BME280;61354;50.758;6.106;2023-07-13T01:52:07;99125.47;;;14.45;74.01
73151;BME280;61354;50.758;6.106;2023-07-13T01:54:33;99115.09;;;14.45;73.78
73151;BME280;61354;50.758;6.106;2023-07-13T01:56:59;99121.50;;;14.46;73.76
73151;BME280;61354;50.758;6.106;2023-07-13T01:59:25;99120.69;;;14.45;74.03
73151;BME280;61354;50.758;6.106;2023-07-13T02:01:50;99129.06;;;14.45;74.44
73151;BME280;61354;50.758;6.106;2023-07-13T02:04:16;99128.63;;;14.39;74.92
73151;BME280;61354;50.758;6.106;2023-07-13T02:06:42;99144.63;;;14.46;75.09
73151;BME280;61354;50.758;6.106;2023-07-13T02:09:07;99145.41;;;14.43;75.46
73151;BME280;61354;50.758;6.106;2023-07-13T02:11:33;99139.81;;;14.39;75.69
73151;BME280;61354;50.758;6.106;2023-07-13T02:14:00;99139.75;;;14.36;76.47
73151;BME280;61354;50.758;6.106;2023-07-13T02:16:27;99139.81;;;14.39;76.26
73151;BME280;61354;50.758;6.106;2023-07-13T02:18:53;99138.56;;;14.37;76.87
73151;BME280;61354;50.758;6.106;2023-07-13T02:21:18;99130.91;;;14.30;77.26
73151;BME280;61354;50.758;6.106;2023-07-13T02:23:44;99136.81;;;14.22;78.12
73151;BME280;61354;50.758;6.106;2023-07-13T02:26:10;99140.44;;;14.26;78.54
73151;BME280;61354;50.758;6.106;2023-07-13T02:28:35;99138.84;;;14.25;78.98
73151;BME280;61354;50.758;6.106;2023-07-13T02:31:09;99138.47;;;14.30;79.09
73151;BME280;61354;50.758;6.106;2023-07-13T02:33:35;99134.94;;;14.33;79.02
73151;BME280;61354;50.758;6.106;2023-07-13T02:36:02;99134.00;;;14.22;79.51
73151;BME280;61354;50.758;6.106;2023-07-13T02:38:27;99139.59;;;14.22;79.98
73151;BME280;61354;50.758;6.106;2023-07-13T02:40:53;99140.38;;;14.18;80.04
73151;BME280;61354;50.758;6.106;2023-07-13T02:43:19;99141.19;;;14.19;80.21
73151;BME280;61354;50.758;6.106;2023-07-13T02:45:45;99131.16;;;14.14;80.71
73151;BME280;61354;50.758;6.106;2023-07-13T02:48:13;99131.91;;;14.11;80.99
73151;BME280;61354;50.758;6.106;2023-07-13T02:50:39;99135.91;;;14.10;81.48
73151;BME280;61354;50.758;6.106;2023-07-13T02:53:04;99139.56;;;14.18;81.33
73151;BME280;61354;50.758;6.106;2023-07-13T02:55:30;99138.25;;;14.08;82.49
73151;BME280;61354;50.758;6.106;2023-07-13T02:57:55;99135.56;;;14.15;82.18
73151;BME280;61354;50.758;6.106;2023-07-13T03:00:22;99135.97;;;14.17;81.97
73151;BME280;61354;50.758;6.106;2023-07-13T03:02:48;99137.91;;;14.13;82.71
73151;BME280;61354;50.758;6.106;2023-07-13T03:05:15;99146.25;;;14.10;83.13
73151;BME280;61354;50.758;6.106;2023-07-13T03:07:41;99137.94;;;14.17;82.73
73151;BME280;61354;50.758;6.106;2023-07-13T03:10:07;99144.19;;;14.03;83.75
73151;BME280;61354;50.758;6.106;2023-07-13T03:12:33;99148.22;;;14.09;83.42
73151;BME280;61354;50.758;6.106;2023-07-13T03:14:59;99154.59;;;14.06;83.78
73151;BME280;61354;50.758;6.106;2023-07-13T03:17:24;99156.28;;;14.14;83.54
73151;BME280;61354;50.758;6.106;2023-07-13T03:19:50;99155.50;;;14.17;83.27
73151;BME280;61354;50.758;6.106;2023-07-13T03:22:17;99151.81;;;14.06;83.93
73151;BME280;61354;50.758;6.106;2023-07-13T03:24:44;99152.22;;;14.08;84.26
73151;BME280;61354;50.758;6.106;2023-07-13T03:27:10;99158.56;;;14.05;84.49
73151;BME280;61354;50.758;6.106;2023-07-13T03:29:35;99157.28;;;13.99;84.92
73151;BME280;61354;50.758;6.106;2023-07-13T03:32:01;99155.34;;;14.03;84.98
73151;BME280;61354;50.758;6.106;2023-07-13T03:34:27;99156.69;;;13.83;86.01
73151;BME280;61354;50.758;6.106;2023-07-13T03:36:55;99159.66;;;13.97;85.48
73151;BME280;61354;50.758;6.106;2023-07-13T03:39:22;99159.34;;;14.02;85.71
73151;BME280;61354;50.758;6.106;2023-07-13T03:41:47;99160.50;;;14.01;85.65
73151;BME280;61354;50.758;6.106;2023-07-13T03:44:15;99168.06;;;14.01;86.00
73151;BME280;61354;50.758;6.106;2023-07-13T03:46:40;99164.72;;;13.88;86.83
73151;BME280;61354;50.758;6.106;2023-07-13T03:49:06;99164.81;;;13.95;86.51
73151;BME280;61354;50.758;6.106;2023-07-13T03:51:31;99166.53;;;14.03;86.40
73151;BME280;61354;50.758;6.106;2023-07-13T03:53:57;99177.63;;;14.00;86.91
73151;BME280;61354;50.758;6.106;2023-07-13T03:56:22;99171.25;;;13.99;86.95
73151;BME280;61354;50.758;6.106;2023-07-13T03:58:49;99174.91;;;14.03;86.70
73151;BME280;61354;50.758;6.106;2023-07-13T04:01:17;99178.31;;;13.89;87.84
73151;BME280;61354;50.758;6.106;2023-07-13T04:03:43;99179.94;;;13.90;88.07
73151;BME280;61354;50.758;6.106;2023-07-13T04:06:15;99184.47;;;14.02;87.37
73151;BME280;61354;50.758;6.106;2023-07-13T04:08:41;99185.25;;;14.03;87.69
73151;BME280;61354;50.758;6.106;2023-07-13T04:11:07;99180.03;;;14.01;87.93
73151;BME280;61354;50.758;6.106;2023-07-13T04:13:33;99186.72;;;13.93;88.58
73151;BME280;61354;50.758;6.106;2023-07-13T04:15:59;99185.22;;;13.99;88.18
73151;BME280;61354;50.758;6.106;2023-07-13T04:18:24;99186.47;;;14.05;88.05
73151;BME280;61354;50.758;6.106;2023-07-13T04:20:50;99194.84;;;14.05;88.47
73151;BME280;61354;50.758;6.106;2023-07-13T04:23:16;99197.19;;;14.00;88.75
73151;BME280;61354;50.758;6.106;2023-07-13T04:25:46;99205.91;;;13.95;89.30
73151;BME280;61354;50.758;6.106;2023-07-13T04:28:15;99208.78;;;14.02;88.74
73151;BME280;61354;50.758;6.106;2023-07-13T04:30:41;99203.22;;;14.05;89.01
73151;BME280;61354;50.758;6.106;2023-07-13T04:33:07;99204.00;;;14.02;89.61
73151;BME280;61354;50.758;6.106;2023-07-13T04:35:34;99201.63;;;14.04;89.44
73151;BME280;61354;50.758;6.106;2023-07-13T04:38:00;99199.28;;;14.06;89.32
73151;BME280;61354;50.758;6.106;2023-07-13T04:40:27;99201.63;;;14.04;89.99
73151;BME280;61354;50.758;6.106;2023-07-13T04:42:53;99204.50;;;14.11;89.11
73151;BME280;61354;50.758;6.106;2023-07-13T04:45:19;99207.34;;;14.15;89.41
73151;BME280;61354;50.758;6.106;2023-07-13T04:47:44;99212.66;;;14.24;88.91
73151;BME280;61354;50.758;6.106;2023-07-13T04:50:13;99211.69;;;14.12;89.68
73151;BME280;61354;50.758;6.106;2023-07-13T04:52:44;99209.84;;;14.24;89.40
73151;BME280;61354;50.758;6.106;2023-07-13T04:55:11;99210.78;;;14.35;88.76
73151;BME280;61354;50.758;6.106;2023-07-13T04:57:37;99216.56;;;14.49;88.10
73151;BME280;61354;50.758;6.106;2023-07-13T05:00:03;99205.03;;;14.54;87.79
73151;BME280;61354;50.758;6.106;2023-07-13T05:02:33;99209.78;;;14.50;88.54
73151;BME280;61354;50.758;6.106;2023-07-13T05:04:59;99214.38;;;14.69;87.58
73151;BME280;61354;50.758;6.106;2023-07-13T05:07:25;99217.63;;;14.75;87.93
73151;BME280;61354;50.758;6.106;2023-07-13T05:09:51;99214.50;;;14.83;86.86
73151;BME280;61354;50.758;6.106;2023-07-13T05:12:17;99224.88;;;14.83;86.60
73151;BME280;61354;50.758;6.106;2023-07-13T05:14:43;99214.91;;;14.82;86.80
73151;BME280;61354;50.758;6.106;2023-07-13T05:17:09;99213.78;;;14.90;87.13
73151;BME280;61354;50.758;6.106;2023-07-13T05:19:35;99216.09;;;14.81;86.40
73151;BME280;61354;50.758;6.106;2023-07-13T05:22:01;99224.50;;;14.81;87.27
73151;BME280;61354;50.758;6.106;2023-07-13T05:24:27;99217.66;;;14.78;87.56
73151;BME280;61354;50.758;6.106;2023-07-13T05:26:53;99216.09;;;14.81;87.72
73151;BME280;61354;50.758;6.106;2023-07-13T05:29:20;99230.38;;;14.72;88.33
73151;BME280;61354;50.758;6.106;2023-07-13T05:31:45;99230.84;;;14.78;88.02
73151;BME280;61354;50.758;6.106;2023-07-13T05:34:11;99239.91;;;14.67;88.67
73151;BME280;61354;50.758;6.106;2023-07-13T05:36:37;99244.34;;;14.72;89.01
73151;BME280;61354;50.758;6.106;2023-07-13T05:39:03;99236.75;;;14.69;89.01
73151;BME280;61354;50.758;6.106;2023-07-13T05:41:29;99239.97;;;14.75;89.11
73151;BME280;61354;50.758;6.106;2023-07-13T05:43:55;99249.66;;;14.84;88.89
73151;BME280;61354;50.758;6.106;2023-07-13T05:46:20;99245.22;;;14.80;89.40
73151;BME280;61354;50.758;6.106;2023-07-13T05:48:46;99244.41;;;14.79;89.38
73151;BME280;61354;50.758;6.106;2023-07-13T05:51:12;99255.38;;;14.95;89.06
73151;BME280;61354;50.758;6.106;2023-07-13T05:53:37;99260.34;;;14.75;90.15
73151;BME280;61354;50.758;6.106;2023-07-13T05:56:03;99251.72;;;14.91;89.56
73151;BME280;61354;50.758;6.106;2023-07-13T05:58:28;99262.50;;;14.89;90.84
73151;BME280;61354;50.758;6.106;2023-07-13T06:01:20;99253.78;;;14.94;90.47
73151;BME280;61354;50.758;6.106;2023-07-13T06:03:47;99257.44;;;15.05;89.80
73151;BME280;61354;50.758;6.106;2023-07-13T06:06:13;99267.38;;;14.99;90.20
73151;BME280;61354;50.758;6.106;2023-07-13T06:08:39;99265.13;;;15.12;90.22
73151;BME280;61354;50.758;6.106;2023-07-13T06:11:13;99269.63;;;15.24;90.28
73151;BME280;61354;50.758;6.106;2023-07-13T06:13:39;99278.78;;;15.21;90.13
73151;BME280;61354;50.758;6.106;2023-07-13T06:16:05;99273.66;;;15.30;90.04
73151;BME280;61354;50.758;6.106;2023-07-13T06:18:35;99275.63;;;15.26;90.52
73151;BME280;61354;50.758;6.106;2023-07-13T06:21:13;99285.97;;;15.22;90.82
73151;BME280;61354;50.758;6.106;2023-07-13T06:23:39;99273.31;;;15.35;90.17
73151;BME280;61354;50.758;6.106;2023-07-13T06:26:05;99270.91;;;15.33;90.19
73151;BME280;61354;50.758;6.106;2023-07-13T06:28:31;99269.41;;;15.43;90.50
73151;BME280;61354;50.758;6.106;2023-07-13T06:30:58;99274.50;;;15.34;90.88
73151;BME280;61354;50.758;6.106;2023-07-13T06:33:24;99282.28;;;15.58;90.05
73151;BME280;61354;50.758;6.106;2023-07-13T06:35:50;99293.50;;;15.58;89.57
73151;BME280;61354;50.758;6.106;2023-07-13T06:38:16;99280.63;;;15.50;90.00
73151;BME280;61354;50.758;6.106;2023-07-13T06:40:41;99288.66;;;15.52;89.65
73151;BME280;61354;50.758;6.106;2023-07-13T06:43:07;99292.63;;;15.51;88.75
73151;BME280;61354;50.758;6.106;2023-07-13T06:45:40;99295.06;;;15.52;89.40
73151;BME280;61354;50.758;6.106;2023-07-13T06:48:06;99291.06;;;15.53;89.82
73151;BME280;61354;50.758;6.106;2023-07-13T06:50:33;99297.66;;;15.75;88.51
73151;BME280;61354;50.758;6.106;2023-07-13T06:52:59;99298.88;;;15.78;88.10
73151;BME280;61354;50.758;6.106;2023-07-13T06:55:25;99303.81;;;15.47;88.94
73151;BME280;61354;50.758;6.106;2023-07-13T06:57:51;99308.88;;;15.79;88.67
73151;BME280;61354;50.758;6.106;2023-07-13T07:00:17;99305.69;;;15.84;88.35
73151;BME280;61354;50.758;6.106;2023-07-13T07:02:43;99300.06;;;15.77;88.52
73151;BME280;61354;50.758;6.106;2023-07-13T07:05:08;99301.06;;;16.06;88.36
73151;BME280;61354;50.758;6.106;2023-07-13T07:07:34;99303.91;;;16.09;87.19
73151;BME280;61354;50.758;6.106;2023-07-13T07:09:59;99300.72;;;16.14;86.38
73151;BME280;61354;50.758;6.106;2023-07-13T07:12:25;99304.63;;;15.99;87.29
73151;BME280;61354;50.758;6.106;2023-07-13T07:14:51;99296.25;;;16.06;87.27
73151;BME280;61354;50.758;6.106;2023-07-13T07:17:16;99302.03;;;16.35;86.86
73151;BME280;61354;50.758;6.106;2023-07-13T07:19:42;99310.06;;;16.40;85.79
73151;BME280;61354;50.758;6.106;2023-07-13T07:22:08;99310.88;;;16.44;85.07
73151;BME280;61354;50.758;6.106;2023-07-13T07:24:33;99308.47;;;16.43;86.79
73151;BME280;61354;50.758;6.106;2023-07-13T07:26:59;99312.78;;;16.26;85.32
73151;BME280;61354;50.758;6.106;2023-07-13T07:29:24;99316.13;;;16.56;85.27
73151;BME280;61354;50.758;6.106;2023-07-13T07:31:52;99308.13;;;16.62;84.30
73151;BME280;61354;50.758;6.106;2023-07-13T07:34:17;99311.06;;;16.80;83.71
73151;BME280;61354;50.758;6.106;2023-07-13T07:36:43;99316.66;;;16.80;83.01
73151;BME280;61354;50.758;6.106;2023-07-13T07:39:08;99315.78;;;16.69;82.81
73151;BME280;61354;50.758;6.106;2023-07-13T07:41:34;99320.28;;;16.91;83.60
73151;BME280;61354;50.758;6.106;2023-07-13T07:44:00;99320.56;;;16.64;82.87
73151;BME280;61354;50.758;6.106;2023-07-13T07:46:25;99323.50;;;16.86;82.49
73151;BME280;61354;50.758;6.106;2023-07-13T07:48:51;99324.34;;;17.01;82.87
73151;BME280;61354;50.758;6.106;2023-07-13T07:51:16;99326.31;;;17.00;82.30
73151;BME280;61354;50.758;6.106;2023-07-13T07:53:42;99336.72;;;16.85;81.04
73151;BME280;61354;50.758;6.106;2023-07-13T07:56:08;99320.72;;;17.07;81.28
73151;BME280;61354;50.758;6.106;2023-07-13T07:58:35;99321.59;;;17.26;80.71
73151;BME280;61354;50.758;6.106;2023-07-13T08:01:05;99324.81;;;17.35;79.93
73151;BME280;61354;50.758;6.106;2023-07-13T08:03:32;99317.56;;;17.23;80.34
73151;BME280;61354;50.758;6.106;2023-07-13T08:05:58;99315.97;;;17.36;79.85
73151;BME280;61354;50.758;6.106;2023-07-13T08:08:24;99314.38;;;17.60;79.65
73151;BME280;61354;50.758;6.106;2023-07-13T08:10:49;99323.59;;;17.36;78.89
73151;BME280;61354;50.758;6.106;2023-07-13T08:13:15;99308.78;;;17.39;79.59
73151;BME280;61354;50.758;6.106;2023-07-13T08:15:40;99317.97;;;17.32;79.67
73151;BME280;61354;50.758;6.106;2023-07-13T08:18:06;99319.16;;;17.21;80.20
73151;BME280;61354;50.758;6.106;2023-07-13T08:20:37;99314.34;;;17.25;80.35
73151;BME280;61354;50.758;6.106;2023-07-13T08:23:03;99319.13;;;16.92;81.10
73151;BME280;61354;50.758;6.106;2023-07-13T08:25:29;99318.69;;;16.90;81.10
73151;BME280;61354;50.758;6.106;2023-07-13T08:27:54;99325.53;;;16.96;81.37
73151;BME280;61354;50.758;6.106;2023-07-13T08:30:20;99328.28;;;16.85;81.69
73151;BME280;61354;50.758;6.106;2023-07-13T08:32:46;99318.97;;;16.71;81.23
73151;BME280;61354;50.758;6.106;2023-07-13T08:35:11;99320.69;;;16.86;80.60
73151;BME280;61354;50.758;6.106;2023-07-13T08:37:38;99326.75;;;17.02;79.77
73151;BME280;61354;50.758;6.106;2023-07-13T08:40:04;99327.56;;;17.21;79.54
73151;BME280;61354;50.758;6.106;2023-07-13T08:42:37;99320.78;;;17.36;79.64
73151;BME280;61354;50.758;6.106;2023-07-13T08:47:44;99311.19;;;17.55;78.40
73151;BME280;61354;50.758;6.106;2023-07-13T08:50:17;99306.75;;;17.64;77.79
73151;BME280;61354;50.758;6.106;2023-07-13T08:52:45;99311.97;;;17.95;77.66
73151;BME280;61354;50.758;6.106;2023-07-13T08:57:44;99304.34;;;18.17;76.02
73151;BME280;61354;50.758;6.106;2023-07-13T09:00:12;99310.28;;;18.40;75.15
73151;BME280;61354;50.758;6.106;2023-07-13T09:02:54;99309.53;;;18.22;74.27
73151;BME280;61354;50.758;6.106;2023-07-13T09:05:31;99307.09;;;18.34;74.83
73151;BME280;61354;50.758;6.106;2023-07-13T09:08:20;99297.00;;;18.48;74.28
73151;BME280;61354;50.758;6.106;2023-07-13T09:16:04;99291.78;;;18.46;71.97
73151;BME280;61354;50.758;6.106;2023-07-13T09:18:37;99293.28;;;18.69;72.31
73151;BME280;61354;50.758;6.106;2023-07-13T09:21:09;99305.34;;;18.80;71.36
73151;BME280;61354;50.758;6.106;2023-07-13T09:23:36;99294.09;;;18.73;69.95
73151;BME280;61354;50.758;6.106;2023-07-13T09:26:11;99303.78;;;18.57;71.30
73151;BME280;61354;50.758;6.106;2023-07-13T09:28:49;99305.50;;;18.23;71.19
73151;BME280;61354;50.758;6.106;2023-07-13T09:31:32;99287.75;;;18.47;72.57
73151;BME280;61354;50.758;6.106;2023-07-13T09:33:59;99293.63;;;18.85;71.40
73151;BME280;61354;50.758;6.106;2023-07-13T09:36:28;99290.00;;;18.88;69.91
73151;BME280;61354;50.758;6.106;2023-07-13T09:41:48;99294.69;;;19.12;68.01
73151;BME280;61354;50.758;6.106;2023-07-13T09:44:18;99295.00;;;19.29;68.69
73151;BME280;61354;50.758;6.106;2023-07-13T09:46:54;99309.09;;;19.22;67.12
73151;BME280;61354;50.758;6.106;2023-07-13T09:49:25;99305.03;;;19.30;67.27
73151;BME280;61354;50.758;6.106;2023-07-13T09:51:58;99295.88;;;19.11;68.07
73151;BME280;61354;50.758;6.106;2023-07-13T09:54:26;99307.50;;;19.21;66.90
73151;BME280;61354;50.758;6.106;2023-07-13T09:56:59;99306.53;;;19.45;68.68
73151;BME280;61354;50.758;6.106;2023-07-13T09:59:34;99301.91;;;19.73;67.23
73151;BME280;61354;50.758;6.106;2023-07-13T10:02:00;99291.41;;;19.77;65.44
73151;BME280;61354;50.758;6.106;2023-07-13T10:04:33;99299.81;;;19.80;65.51
73151;BME280;61354;50.758;6.106;2023-07-13T10:07:12;99307.69;;;19.51;65.21
73151;BME280;61354;50.758;6.106;2023-07-13T10:09:41;99307.41;;;19.91;64.62
73151;BME280;61354;50.758;6.106;2023-07-13T10:12:15;99313.44;;;19.89;64.78
73151;BME280;61354;50.758;6.106;2023-07-13T10:14:42;99315.78;;;19.94;63.86
73151;BME280;61354;50.758;6.106;2023-07-13T10:17:10;99316.38;;;19.75;62.69
73151;BME280;61354;50.758;6.106;2023-07-13T10:19:38;99313.63;;;19.68;63.62
73151;BME280;61354;50.758;6.106;2023-07-13T10:22:44;99321.94;;;19.30;63.06
73151;BME280;61354;50.758;6.106;2023-07-13T10:25:19;99328.84;;;19.74;64.04
73151;BME280;61354;50.758;6.106;2023-07-13T10:27:47;99325.59;;;19.82;65.68
73151;BME280;61354;50.758;6.106;2023-07-13T10:30:19;99327.47;;;19.96;63.40
73151;BME280;61354;50.758;6.106;2023-07-13T10:32:46;99325.53;;;19.86;63.85
73151;BME280;61354;50.758;6.106;2023-07-13T10:35:15;99329.56;;;19.85;62.20
73151;BME280;61354;50.758;6.106;2023-07-13T10:37:52;99325.63;;;19.79;62.67
73151;BME280;61354;50.758;6.106;2023-07-13T10:40:33;99340.59;;;19.65;63.39
73151;BME280;61354;50.758;6.106;2023-07-13T10:43:02;99330.97;;;19.63;65.11
73151;BME280;61354;50.758;6.106;2023-07-13T10:45:34;99344.22;;;19.66;64.93
73151;BME280;61354;50.758;6.106;2023-07-13T10:48:00;99338.63;;;19.58;63.74
73151;BME280;61354;50.758;6.106;2023-07-13T10:50:28;99346.97;;;19.73;64.30
73151;BME280;61354;50.758;6.106;2023-07-13T10:53:02;99343.84;;;19.56;65.24
73151;BME280;61354;50.758;6.106;2023-07-13T10:55:39;99352.78;;;19.44;65.56
73151;BME280;61354;50.758;6.106;2023-07-13T10:58:23;99355.97;;;19.53;63.83
73151;BME280;61354;50.758;6.106;2023-07-13T11:00:56;99342.84;;;19.88;64.33
73151;BME280;61354;50.758;6.106;2023-07-13T11:03:26;99350.41;;;19.95;63.62
73151;BME280;61354;50.758;6.106;2023-07-13T11:06:09;99358.84;;;19.98;62.93
73151;BME280;61354;50.758;6.106;2023-07-13T11:08:57;99354.53;;;19.86;62.94
73151;BME280;61354;50.758;6.106;2023-07-13T11:18:48;99371.34;;;19.38;65.63
73151;BME280;61354;50.758;6.106;2023-07-13T11:21:22;99359.81;;;19.18;63.97
73151;BME280;61354;50.758;6.106;2023-07-13T11:29:31;99365.53;;;19.04;64.99
73151;BME280;61354;50.758;6.106;2023-07-13T11:32:00;99360.56;;;19.26;65.12
73151;BME280;61354;50.758;6.106;2023-07-13T11:34:30;99367.72;;;19.41;64.58
73151;BME280;61354;50.758;6.106;2023-07-13T11:36:58;99351.47;;;19.59;64.79
73151;BME280;61354;50.758;6.106;2023-07-13T11:39:39;99356.94;;;19.84;65.36
73151;BME280;61354;50.758;6.106;2023-07-13T11:42:13;99348.25;;;19.65;64.64
73151;BME280;61354;50.758;6.106;2023-07-13T11:44:46;99352.28;;;19.67;63.64
73151;BME280;61354;50.758;6.106;2023-07-13T11:47:20;99351.38;;;19.77;63.72
73151;BME280;61354;50.758;6.106;2023-07-13T11:49:52;99350.50;;;19.88;64.90
73151;BME280;61354;50.758;6.106;2023-07-13T11:52:23;99349.56;;;20.01;62.58
73151;BME280;61354;50.758;6.106;2023-07-13T11:54:54;99353.56;;;20.04;61.19
73151;BME280;61354;50.758;6.106;2023-07-13T11:57:25;99340.72;;;19.99;61.42
73151;BME280;61354;50.758;6.106;2023-07-13T11:59:52;99352.69;;;20.10;60.94
73151;BME280;61354;50.758;6.106;2023-07-13T12:02:32;99346.78;;;19.94;60.23
73151;BME280;61354;50.758;6.106;2023-07-13T12:05:00;99349.38;;;20.19;60.35
73151;BME280;61354;50.758;6.106;2023-07-13T12:07:28;99349.47;;;20.12;60.08
73151;BME280;61354;50.758;6.106;2023-07-13T12:09:53;99346.53;;;19.78;60.22
73151;BME280;61354;50.758;6.106;2023-07-13T12:12:22;99346.66;;;19.64;60.32
73151;BME280;61354;50.758;6.106;2023-07-13T12:14:51;99338.81;;;19.85;59.06
73151;BME280;61354;50.758;6.106;2023-07-13T12:17:24;99348.78;;;19.97;58.79
73151;BME280;61354;50.758;6.106;2023-07-13T12:19:51;99341.28;;;20.25;59.15
73151;BME280;61354;50.758;6.106;2023-07-13T12:22:19;99340.63;;;20.51;59.67
73151;BME280;61354;50.758;6.106;2023-07-13T12:24:45;99345.16;;;20.38;56.35
73151;BME280;61354;50.758;6.106;2023-07-13T12:27:26;99342.69;;;20.44;57.84
73151;BME280;61354;50.758;6.106;2023-07-13T12:29:58;99355.06;;;20.57;57.59
73151;BME280;61354;50.758;6.106;2023-07-13T12:32:25;99346.63;;;20.57;57.56
73151;BME280;61354;50.758;6.106;2023-07-13T12:34:53;99353.88;;;20.54;57.17
73151;BME280;61354;50.758;6.106;2023-07-13T12:37:19;99354.00;;;20.40;56.58
73151;BME280;61354;50.758;6.106;2023-07-13T12:39:47;99351.69;;;20.28;56.07
73151;BME280;61354;50.758;6.106;2023-07-13T12:44:41;99357.03;;;20.60;55.77
73151;BME280;61354;50.758;6.106;2023-07-13T12:47:12;99362.03;;;20.45;55.52
73151;BME280;61354;50.758;6.106;2023-07-13T12:49:50;99357.50;;;20.89;57.66
73151;BME280;61354;50.758;6.106;2023-07-13T12:52:27;99355.81;;;20.95;55.03
73151;BME280;61354;50.758;6.106;2023-07-13T12:54:58;99352.44;;;21.07;57.16
73151;BME280;61354;50.758;6.106;2023-07-13T12:57:25;99349.22;;;21.05;56.50
73151;BME280;61354;50.758;6.106;2023-07-13T12:59:53;99341.97;;;21.04;56.75
73151;BME280;61354;50.758;6.106;2023-07-13T13:02:27;99342.72;;;21.08;56.89
73151;BME280;61354;50.758;6.106;2023-07-13T13:04:55;99342.34;;;21.06;56.52
73151;BME280;61354;50.758;6.106;2023-07-13T13:07:21;99343.06;;;21.45;55.81
73151;BME280;61354;50.758;6.106;2023-07-13T13:09:47;99345.81;;;21.18;55.05
73151;BME280;61354;50.758;6.106;2023-07-13T13:12:13;99341.50;;;21.09;54.46
73151;BME280;61354;50.758;6.106;2023-07-13T13:14:38;99349.31;;;20.98;53.05
73151;BME280;61354;50.758;6.106;2023-07-13T13:17:17;99350.25;;;21.19;53.40
73151;BME280;61354;50.758;6.106;2023-07-13T13:19:44;99344.44;;;21.33;51.78
73151;BME280;61354;50.758;6.106;2023-07-13T13:22:10;99341.13;;;21.07;52.67
73151;BME280;61354;50.758;6.106;2023-07-13T13:24:35;99333.03;;;21.09;54.17
73151;BME280;61354;50.758;6.106;2023-07-13T13:27:01;99335.97;;;21.29;54.41
73151;BME280;61354;50.758;6.106;2023-07-13T13:29:27;99331.81;;;21.41;55.60
73151;BME280;61354;50.758;6.106;2023-07-13T13:31:54;99336.22;;;21.69;54.65
73151;BME280;61354;50.758;6.106;2023-07-13T13:34:21;99333.78;;;21.68;53.53
73151;BME280;61354;50.758;6.106;2023-07-13T13:36:50;99321.59;;;21.74;54.35